Time;durP1;ratioP1;P1;durP2;ratioP2;P2;SDS_P1;SDS_P2;PMS_P1;PMS_P2;Temp;Humidity;BMP_temperature;BMP_pressure;BME280_temperature;BME280_humidity;BME280_pressure;Samples;Min_cycle;Max_cycle;Signal;HPM_P1;HPM_P2
2022/04/25 00:00:34;;;;;;;;;;;;;;;;;;;;;
2022/04/25 00:03:01;;;;;;;;;;;;;;;10.58;78.28;99586.19;5066097;28;1462;-90
2022/04/25 00:05:26;;;;;;;;;;;;;;;10.61;77.55;99595.75;5067978;28;1546;-90
2022/04/25 00:08:09;;;;;;;;;;;;;;;10.21;76.70;99598.09;5052662;28;1913;-90
2022/04/25 00:10:34;;;;;;;;;;;;;;;10.14;77.00;99602.28;5053662;28;1729;-90
2022/04/25 00:12:59;;;;;;;;;;;;;;;10.21;78.10;99605.47;5055572;28;1224;-91
2022/04/25 00:15:27;;;;;;;;;;;;;;;10.23;77.67;99609.53;5072036;28;1363;-90
2022/04/25 00:17:52;;;;;;;;;;;;;;;10.31;76.07;99612.69;5064255;28;1493;-90
2022/04/25 00:20:17;;;;;;;;;;;;;;;10.48;76.42;99602.00;5054625;28;1888;-90
2022/04/25 00:22:45;;;;;;;;;;;;;;;10.17;74.94;99612.63;5058161;28;1538;-90
2022/04/25 00:25:10;;;;;;;;;;;;;;;10.24;76.84;99613.91;5067171;28;1311;-90
2022/04/25 00:27:38;;;;;;;;;;;;;;;10.33;77.37;99614.03;5066772;28;1898;-90
2022/04/25 00:30:03;;;;;;;;;;;;;;;10.46;76.81;99615.19;5058577;28;1844;-90
2022/04/25 00:32:28;;;;;;;;;;;;;;;10.46;75.47;99612.44;5058482;28;1582;-90
2022/04/25 00:35:04;;;;;;;;;;;;;;;10.52;75.42;99613.97;5066988;28;1344;-90
2022/04/25 00:37:34;;;;;;;;;;;;;;;10.18;76.46;99615.09;5071425;28;1907;-90
2022/04/25 00:40:17;;;;;;;;;;;;;;;10.24;75.73;99616.63;5058143;28;1406;-91
2022/04/25 00:42:50;;;;;;;;;;;;;;;10.26;76.16;99613.59;5072667;28;1577;-90
2022/04/25 00:45:16;;;;;;;;;;;;;;;10.39;76.42;99615.56;5049709;28;1842;-91
2022/04/25 00:51:04;;;;;;;;;;;;;;;10.18;76.07;99609.66;5050006;28;1257;-91
2022/04/25 00:53:43;;;;;;;;;;;;;;;10.22;76.57;99609.84;5058684;28;1705;-90
2022/04/25 00:56:21;;;;;;;;;;;;;;;;;;;;;
2022/04/25 01:05:28;;;;;;;;;;;;;;;10.19;75.74;99615.94;5030440;28;1415;-91
2022/04/25 01:54:24;;;;;;;;;;;;;;;9.90;78.29;99646.16;5052971;28;1639;-92
2022/04/25 01:56:50;;;;;;;;;;;;;;;9.92;78.16;99649.41;5053824;28;1555;-91
2022/04/25 01:59:15;;;;;;;;;;;;;;;9.94;78.75;99652.66;5036774;28;1616;-91
2022/04/25 02:01:40;;;;;;;;;;;;;;;10.02;78.15;99657.47;5036459;28;1918;-91
2022/04/25 02:04:05;;;;;;;;;;;;;;;10.09;78.24;99666.09;5036563;28;1200;-91
2022/04/25 02:06:30;;;;;;;;;;;;;;;10.13;77.42;99658.09;5036637;28;1685;-89
2022/04/25 02:08:56;;;;;;;;;;;;;;;10.13;78.23;99649.88;5036837;28;1910;-91
2022/04/25 02:11:22;;;;;;;;;;;;;;;10.10;77.62;99661.44;5036049;28;1878;-91
2022/04/25 02:13:51;;;;;;;;;;;;;;;10.03;78.07;99650.88;5035790;28;1580;-91
2022/04/25 02:16:17;;;;;;;;;;;;;;;10.00;77.88;99653.38;5036736;28;1376;-91
2022/04/25 02:18:42;;;;;;;;;;;;;;;9.93;78.83;99651.03;5035508;28;1738;-91
2022/04/25 02:21:07;;;;;;;;;;;;;;;9.97;78.86;99656.69;5054660;28;1575;-90
2022/04/25 02:23:33;;;;;;;;;;;;;;;9.87;77.90;99660.41;5032819;28;1734;-91
2022/04/25 02:25:59;;;;;;;;;;;;;;;9.86;78.12;99664.25;5036494;28;1310;-91
2022/04/25 02:28:24;;;;;;;;;;;;;;;9.87;78.34;99663.94;5028533;28;1906;-91
2022/04/25 02:30:51;;;;;;;;;;;;;;;9.79;79.20;99655.59;5034520;28;1355;-91
2022/04/25 02:33:16;;;;;;;;;;;;;;;9.80;77.61;99660.78;5031500;28;1534;-91
2022/04/25 02:35:41;;;;;;;;;;;;;;;9.85;77.59;99665.38;5033163;28;1617;-91
2022/04/25 02:38:11;;;;;;;;;;;;;;;9.79;78.56;99659.16;5035799;28;1553;-91
2022/04/25 02:43:59;;;;;;;;;;;;;;;9.92;79.22;99660.34;5021387;28;2053;-92
2022/04/25 02:46:24;;;;;;;;;;;;;;;9.87;78.17;99668.59;5034926;28;1813;-90
2022/04/25 02:51:48;;;;;;;;;;;;;;;9.62;78.94;99669.78;5031878;28;1522;-92
2022/04/25 02:54:14;;;;;;;;;;;;;;;9.70;79.10;99674.59;5034896;28;1484;-92
2022/04/25 02:56:41;;;;;;;;;;;;;;;9.72;78.61;99666.91;5036191;28;1450;-91
2022/04/25 02:59:07;;;;;;;;;;;;;;;9.78;79.27;99675.88;5030236;28;1543;-92
2022/04/25 03:01:52;;;;;;;;;;;;;;;;;;;;;
2022/04/25 03:04:20;;;;;;;;;;;;;;;9.77;79.60;99675.06;5053851;28;1289;-91
2022/04/25 03:06:46;;;;;;;;;;;;;;;9.80;79.38;99673.63;5035947;28;1388;-91
2022/04/25 03:09:11;;;;;;;;;;;;;;;9.79;78.80;99669.25;5035783;28;1965;-91
2022/04/25 03:11:39;;;;;;;;;;;;;;;9.72;78.97;99666.09;5032948;28;1532;-91
2022/04/25 03:14:04;;;;;;;;;;;;;;;9.65;79.76;99663.72;5032819;28;1310;-92
2022/04/25 03:16:35;;;;;;;;;;;;;;;9.64;80.23;99670.31;5025153;28;1453;-91
2022/04/25 03:19:01;;;;;;;;;;;;;;;9.65;80.03;99669.19;5027740;28;1325;-92
2022/04/25 03:21:29;;;;;;;;;;;;;;;9.72;80.89;99671.56;5034946;28;1281;-92
2022/04/25 03:23:55;;;;;;;;;;;;;;;9.73;79.39;99673.19;5035015;28;1529;-91
2022/04/25 03:26:26;;;;;;;;;;;;;;;9.72;79.79;99666.91;5033198;28;1420;-92
2022/04/25 03:28:51;;;;;;;;;;;;;;;9.77;79.08;99675.06;5031453;28;1947;-92
2022/04/25 03:31:19;;;;;;;;;;;;;;;9.78;79.60;99678.59;5035823;28;1457;-92
2022/04/25 03:33:46;;;;;;;;;;;;;;;9.74;80.19;99678.38;5035791;28;1829;-92
2022/04/25 03:36:12;;;;;;;;;;;;;;;9.81;79.86;99667.88;5036174;28;1258;-92
2022/04/25 03:38:52;;;;;;;;;;;;;;;9.80;79.21;99663.50;5035585;28;1669;-91
2022/04/25 03:41:23;;;;;;;;;;;;;;;9.86;79.02;99664.25;5031102;28;1481;-92
2022/04/25 03:43:57;;;;;;;;;;;;;;;9.84;79.51;99664.56;5031037;28;1280;-91
2022/04/25 03:46:23;;;;;;;;;;;;;;;9.71;79.76;99661.72;5053351;28;1523;-91
2022/04/25 03:48:54;;;;;;;;;;;;;;;9.52;77.88;99661.75;5053342;28;1957;-92
2022/04/25 03:51:28;;;;;;;;;;;;;;;9.51;79.28;99662.03;5035482;28;1234;-91
2022/04/25 03:53:54;;;;;;;;;;;;;;;9.35;78.94;99673.16;5034765;28;1491;-92
2022/04/25 03:59:05;;;;;;;;;;;;;;;9.45;78.09;99672.19;5045918;28;1677;-91
2022/04/25 04:01:31;;;;;;;;;;;;;;;9.48;78.22;99669.69;5038896;28;1265;-91
2022/04/25 04:04:02;;;;;;;;;;;;;;;9.37;78.25;99681.03;5038995;28;1722;-92
2022/04/25 04:06:27;;;;;;;;;;;;;;;9.34;77.85;99682.47;5039263;28;1378;-92
2022/04/25 04:08:58;;;;;;;;;;;;;;;9.43;78.64;99685.34;5032340;28;1894;-92
2022/04/25 04:11:25;;;;;;;;;;;;;;;9.49;78.37;99679.53;5039178;28;1261;-91
2022/04/25 04:14:08;;;;;;;;;;;;;;;9.59;78.55;99684.03;5056009;28;1641;-91
2022/04/25 04:16:33;;;;;;;;;;;;;;;9.56;77.86;99681.06;5038952;28;1401;-91
2022/04/25 04:19:02;;;;;;;;;;;;;;;9.49;78.45;99682.25;5037644;28;1730;-92
2022/04/25 04:21:29;;;;;;;;;;;;;;;9.47;78.26;99687.19;5028243;28;1537;-92
2022/04/25 04:24:10;;;;;;;;;;;;;;;9.50;78.43;99694.00;5039122;28;1414;-92
2022/04/25 04:26:46;;;;;;;;;;;;;;;9.32;78.27;99681.13;5029402;28;1663;-92
2022/04/25 04:32:07;;;;;;;;;;;;;;;9.35;77.93;99692.28;5049115;28;1372;-90
2022/04/25 04:34:36;;;;;;;;;;;;;;;9.37;78.39;99698.25;5034267;28;1546;-92
2022/04/25 04:37:05;;;;;;;;;;;;;;;9.33;78.85;99699.94;5038906;28;1311;-91
2022/04/25 04:39:33;;;;;;;;;;;;;;;9.40;78.52;99708.59;5037861;28;1715;-91
2022/04/25 04:41:58;;;;;;;;;;;;;;;9.42;78.57;99700.13;5038004;28;1383;-91
2022/04/25 04:45:02;;;;;;;;;;;;;;;9.39;78.10;99695.22;5037656;28;1590;-91
2022/04/25 04:47:34;;;;;;;;;;;;;;;9.53;79.58;99701.59;5030782;28;1894;-92
2022/04/25 04:50:14;;;;;;;;;;;;;;;9.49;78.50;99706.84;5030100;28;1706;-91
2022/04/25 04:52:39;;;;;;;;;;;;;;;9.38;79.21;99699.06;5037830;28;1412;-91
2022/04/25 04:55:07;;;;;;;;;;;;;;;9.39;78.18;99709.69;5038728;28;1528;-91
2022/04/25 04:57:38;;;;;;;;;;;;;;;9.36;79.41;99709.44;5038321;28;1628;-91
2022/04/25 05:00:16;;;;;;;;;;;;;;;9.42;78.75;99720.03;5038328;28;1348;-91
2022/04/25 05:02:58;;;;;;;;;;;;;;;9.31;77.77;99712.25;5038577;28;1319;-91
2022/04/25 05:05:42;;;;;;;;;;;;;;;9.26;79.14;99718.59;5023614;28;1509;-91
2022/04/25 05:08:10;;;;;;;;;;;;;;;9.17;79.23;99723.06;5034420;28;1902;-91
2022/04/25 05:10:53;;;;;;;;;;;;;;;9.22;79.30;99723.00;5038193;28;1232;-91
2022/04/25 05:13:35;;;;;;;;;;;;;;;9.21;78.38;99736.94;5024676;28;1493;-91
2022/04/25 05:16:03;;;;;;;;;;;;;;;9.26;78.80;99735.00;5037722;28;1644;-91
2022/04/25 05:18:33;;;;;;;;;;;;;;;9.25;78.32;99733.34;5030972;28;1415;-91
2022/04/25 05:21:04;;;;;;;;;;;;;;;9.25;78.73;99744.28;5035145;28;1630;-91
2022/04/25 05:23:32;;;;;;;;;;;;;;;9.19;79.01;99747.34;5038572;28;1318;-91
2022/04/25 05:26:00;;;;;;;;;;;;;;;9.17;78.63;99736.72;5027978;28;1424;-91
2022/04/25 05:28:25;;;;;;;;;;;;;;;9.05;77.70;99750.75;5029919;28;1886;-91
2022/04/25 05:30:51;;;;;;;;;;;;;;;9.03;78.06;99754.88;5035850;28;1762;-91
2022/04/25 05:33:17;;;;;;;;;;;;;;;9.08;78.66;99760.31;5037937;28;1743;-90
2022/04/25 05:35:42;;;;;;;;;;;;;;;9.11;78.83;99759.69;5036353;28;1789;-90
2022/04/25 05:38:10;;;;;;;;;;;;;;;9.16;77.42;99765.13;5038312;28;1921;-90
2022/04/25 05:40:36;;;;;;;;;;;;;;;9.14;77.48;99766.50;5038016;28;1415;-90
2022/04/25 05:43:02;;;;;;;;;;;;;;;9.14;77.99;99772.78;5024517;28;1793;-90
2022/04/25 05:45:27;;;;;;;;;;;;;;;9.05;78.04;99763.59;5038287;28;1179;-90
2022/04/25 05:47:56;;;;;;;;;;;;;;;9.22;77.51;99771.34;5037760;28;1969;-90
2022/04/25 05:53:05;;;;;;;;;;;;;;;9.04;77.04;99776.44;5055521;28;890;-91
2022/04/25 05:55:31;;;;;;;;;;;;;;;9.02;78.17;99777.81;5055393;28;1600;-90
2022/04/25 05:57:57;;;;;;;;;;;;;;;8.81;77.01;99782.66;5036160;28;1666;-90
2022/04/25 06:00:22;;;;;;;;;;;;;;;8.88;77.77;99791.31;5052331;28;1475;-90
2022/04/25 06:02:47;;;;;;;;;;;;;;;9.09;78.32;99790.03;5037492;28;1329;-90
2022/04/25 06:05:12;;;;;;;;;;;;;;;9.11;77.13;99793.28;5037311;28;1230;-90
2022/04/25 06:07:41;;;;;;;;;;;;;;;8.83;77.80;99796.84;5054402;28;1905;-90
2022/04/25 06:10:07;;;;;;;;;;;;;;;8.93;78.86;99802.19;5054468;28;1721;-90
2022/04/25 06:12:32;;;;;;;;;;;;;;;8.91;78.65;99798.13;5037604;28;1430;-90
2022/04/25 06:15:00;;;;;;;;;;;;;;;8.82;79.00;99800.66;5034858;28;1282;-91
2022/04/25 06:17:25;;;;;;;;;;;;;;;8.93;79.11;99801.41;5026994;28;1467;-91
2022/04/25 06:19:50;;;;;;;;;;;;;;;8.94;78.23;99803.00;5032027;28;1374;-90
2022/04/25 06:22:17;;;;;;;;;;;;;;;9.10;78.46;99804.50;5037065;28;1472;-89
2022/04/25 06:24:42;;;;;;;;;;;;;;;9.16;78.57;99805.25;5055093;28;1046;-90
2022/04/25 06:27:09;;;;;;;;;;;;;;;9.03;78.57;99812.19;5032749;28;1841;-90
2022/04/25 06:29:35;;;;;;;;;;;;;;;9.08;78.52;99809.44;5022556;28;1947;-90
2022/04/25 06:32:03;;;;;;;;;;;;;;;9.22;78.76;99815.84;5037432;28;1252;-90
2022/04/25 06:34:28;;;;;;;;;;;;;;;9.27;78.15;99806.81;5024657;28;1392;-90
2022/04/25 06:36:53;;;;;;;;;;;;;;;9.19;77.53;99821.06;5037339;28;1244;-91
2022/04/25 06:39:18;;;;;;;;;;;;;;;9.30;78.04;99817.13;5037225;28;1450;-90
2022/04/25 06:41:43;;;;;;;;;;;;;;;9.32;78.25;99815.75;5036788;28;1417;-89
2022/04/25 06:44:09;;;;;;;;;;;;;;;9.27;78.95;99823.19;5036670;28;1738;-90
2022/04/25 06:46:34;;;;;;;;;;;;;;;9.20;77.67;99826.22;5037135;28;1280;-90
2022/04/25 06:51:42;;;;;;;;;;;;;;;9.37;76.93;99834.00;5048492;28;1513;-90
2022/04/25 06:54:08;;;;;;;;;;;;;;;9.35;77.32;99828.84;5030252;28;1506;-90
2022/04/25 06:56:33;;;;;;;;;;;;;;;9.37;77.52;99825.78;5046549;28;1375;-90
2022/04/25 06:58:58;;;;;;;;;;;;;;;9.33;77.76;99827.50;5036932;28;1248;-91
2022/04/25 07:01:24;;;;;;;;;;;;;;;9.36;77.66;99835.91;5037152;28;1276;-90
2022/04/25 07:03:49;;;;;;;;;;;;;;;9.21;78.47;99830.59;5036319;28;1798;-90
2022/04/25 07:06:14;;;;;;;;;;;;;;;9.20;80.12;99831.69;5029717;28;1272;-90
2022/04/25 07:08:39;;;;;;;;;;;;;;;9.30;78.43;99828.88;5036686;28;1906;-91
2022/04/25 07:11:05;;;;;;;;;;;;;;;9.47;77.52;99840.16;5036561;28;731;-90
2022/04/25 07:13:33;;;;;;;;;;;;;;;9.54;78.61;99839.00;5035895;28;1678;-90
2022/04/25 07:15:58;;;;;;;;;;;;;;;9.50;77.34;99833.31;5037019;28;1394;-90
2022/04/25 07:18:24;;;;;;;;;;;;;;;9.63;77.81;99840.00;5035732;28;1534;-90
2022/04/25 07:20:49;;;;;;;;;;;;;;;9.65;77.75;99843.25;5052194;28;1384;-90
2022/04/25 07:28:58;;;;;;;;;;;;;;;9.64;77.40;99838.91;5041696;28;1959;-90
2022/04/25 07:31:23;;;;;;;;;;;;;;;9.80;78.50;99834.88;5039057;28;1407;-90
2022/04/25 07:33:48;;;;;;;;;;;;;;;9.92;78.34;99838.03;5036518;28;1406;-91
2022/04/25 07:36:18;;;;;;;;;;;;;;;9.92;76.59;99842.69;5039995;28;1271;-90
2022/04/25 07:38:43;;;;;;;;;;;;;;;9.92;76.72;99840.75;5041285;28;1358;-90
2022/04/25 07:41:08;;;;;;;;;;;;;;;9.83;78.24;99845.25;5037005;28;1346;-90
2022/04/25 07:43:34;;;;;;;;;;;;;;;9.75;78.17;99859.53;5020736;28;1028;-90
2022/04/25 07:45:59;;;;;;;;;;;;;;;9.83;78.94;99848.78;5032164;28;1399;-91
2022/04/25 07:48:25;;;;;;;;;;;;;;;9.89;78.17;99852.25;5050358;28;1909;-90
2022/04/25 07:50:50;;;;;;;;;;;;;;;9.95;76.82;99859.31;5040499;28;1376;-91
2022/04/25 07:53:15;;;;;;;;;;;;;;;10.16;77.67;99854.41;5037859;28;1473;-91
2022/04/25 07:55:40;;;;;;;;;;;;;;;10.33;78.34;99856.66;5034011;28;1217;-90
2022/04/25 07:58:07;;;;;;;;;;;;;;;10.33;77.75;99848.47;5038111;28;1347;-90
2022/04/25 08:00:33;;;;;;;;;;;;;;;10.44;78.46;99860.91;5040657;28;1350;-90
2022/04/25 08:02:58;;;;;;;;;;;;;;;10.58;78.49;99864.50;5044487;28;1455;-90
2022/04/25 08:05:25;;;;;;;;;;;;;;;10.57;78.54;99860.16;5038265;28;1338;-90
2022/04/25 08:07:50;;;;;;;;;;;;;;;10.88;78.36;99866.00;5023299;28;1898;-90
2022/04/25 08:10:16;;;;;;;;;;;;;;;11.04;78.08;99872.84;5039394;28;1352;-90
2022/04/25 08:18:11;;;;;;;;;;;;;;;11.03;76.39;99881.34;5058342;28;1327;-91
2022/04/25 08:20:37;;;;;;;;;;;;;;;10.95;76.57;99875.44;5040374;28;1782;-91
2022/04/25 08:23:03;;;;;;;;;;;;;;;11.10;76.65;99877.13;5039148;28;1801;-90
2022/04/25 08:25:30;;;;;;;;;;;;;;;11.23;76.59;99891.97;5036596;28;1412;-90
2022/04/25 08:27:56;;;;;;;;;;;;;;;11.30;75.76;99893.22;5039230;28;1902;-89
2022/04/25 08:30:21;;;;;;;;;;;;;;;11.29;75.72;99896.25;5039717;28;1364;-89
2022/04/25 08:32:46;;;;;;;;;;;;;;;11.11;75.46;99892.44;5039269;28;1448;-89
2022/04/25 08:35:12;;;;;;;;;;;;;;;11.02;75.77;99901.63;5039850;28;1366;-90
2022/04/25 08:37:38;;;;;;;;;;;;;;;10.66;74.62;99902.16;5039502;28;2054;-90
2022/04/25 08:40:04;;;;;;;;;;;;;;;10.46;76.93;99903.25;5057333;28;829;-90
2022/04/25 08:42:31;;;;;;;;;;;;;;;10.56;76.97;99905.03;5034445;28;1703;-90
2022/04/25 08:44:57;;;;;;;;;;;;;;;10.50;75.19;99908.97;5045269;28;1463;-90
2022/04/25 08:47:26;;;;;;;;;;;;;;;10.69;75.52;99919.94;5056252;28;1676;-91
2022/04/25 08:49:51;;;;;;;;;;;;;;;10.87;75.73;99910.91;5057947;28;1085;-90
2022/04/25 08:52:17;;;;;;;;;;;;;;;11.01;76.54;99922.72;5058036;28;1839;-90
2022/04/25 08:54:43;;;;;;;;;;;;;;;11.18;75.98;99922.19;5039828;28;1416;-90
2022/04/25 08:57:08;;;;;;;;;;;;;;;11.24;74.53;99921.81;5039623;28;1394;-91
2022/04/25 08:59:33;;;;;;;;;;;;;;;11.13;73.74;99931.31;5040799;28;1614;-91
2022/04/25 09:01:58;;;;;;;;;;;;;;;11.19;74.72;99926.56;5036222;28;1404;-91
2022/04/25 09:04:24;;;;;;;;;;;;;;;11.20;73.19;99931.75;5036566;28;1795;-90
2022/04/25 09:06:51;;;;;;;;;;;;;;;11.41;74.00;99936.88;5049361;28;1480;-91
2022/04/25 09:09:16;;;;;;;;;;;;;;;11.55;74.28;99940.50;5023262;28;1955;-90
2022/04/25 09:14:26;;;;;;;;;;;;;;;11.40;72.46;99952.50;5058324;28;615;-91
2022/04/25 09:16:52;;;;;;;;;;;;;;;11.49;72.34;99947.16;5039344;28;1496;-91
2022/04/25 09:19:17;;;;;;;;;;;;;;;11.61;71.66;99948.31;5039989;28;1404;-91
2022/04/25 09:21:44;;;;;;;;;;;;;;;11.65;72.37;99954.03;5039482;28;1734;-89
2022/04/25 09:24:25;;;;;;;;;;;;;;;11.61;72.78;99952.97;5040106;28;1607;-90
2022/04/25 09:27:11;;;;;;;;;;;;;;;11.45;73.54;99966.13;5036440;28;1310;-91
2022/04/25 09:29:37;;;;;;;;;;;;;;;11.42;73.48;99955.75;5037113;28;1944;-89
2022/04/25 09:32:03;;;;;;;;;;;;;;;11.37;73.85;99959.41;5019750;28;1273;-90
2022/04/25 09:37:12;;;;;;;;;;;;;;;11.55;73.96;99963.22;5037714;28;1288;-90
2022/04/25 09:39:37;;;;;;;;;;;;;;;11.51;74.37;99964.13;5020048;28;1265;-90
2022/04/25 09:42:02;;;;;;;;;;;;;;;11.48;75.31;99971.03;5026883;28;1614;-90
2022/04/25 09:44:30;;;;;;;;;;;;;;;11.44;74.02;99967.25;5038819;28;1338;-91
2022/04/25 09:46:55;;;;;;;;;;;;;;;11.69;74.25;99960.53;5039376;28;1274;-92
2022/04/25 09:49:21;;;;;;;;;;;;;;;11.89;73.75;99964.88;5040329;28;1968;-90
2022/04/25 09:51:59;;;;;;;;;;;;;;;12.11;73.87;99968.53;5040349;28;1762;-91
2022/04/25 09:54:24;;;;;;;;;;;;;;;12.30;74.00;99964.91;5040449;28;1675;-90
2022/04/25 09:56:51;;;;;;;;;;;;;;;12.42;73.27;99965.19;5058337;28;1365;-91
2022/04/25 09:59:16;;;;;;;;;;;;;;;12.25;73.13;99967.75;5040059;28;1241;-91
2022/04/25 10:01:43;;;;;;;;;;;;;;;12.23;72.17;99968.06;5040559;28;1806;-92
2022/04/25 10:04:27;;;;;;;;;;;;;;;12.19;72.20;99972.50;5039944;28;1448;-91
2022/04/25 10:06:54;;;;;;;;;;;;;;;12.17;72.20;99976.66;5058320;28;1189;-91
2022/04/25 10:09:20;;;;;;;;;;;;;;;11.97;72.32;99975.94;5046500;28;1901;-91
2022/04/25 10:11:46;;;;;;;;;;;;;;;12.05;73.08;99977.19;5034714;28;1263;-91
2022/04/25 10:14:11;;;;;;;;;;;;;;;12.16;73.71;99975.06;5039853;28;1786;-91
2022/04/25 10:16:36;;;;;;;;;;;;;;;12.27;73.53;99979.22;5039422;28;1302;-91
2022/04/25 10:19:02;;;;;;;;;;;;;;;12.35;72.93;99982.06;5039037;28;1451;-91
2022/04/25 10:21:29;;;;;;;;;;;;;;;12.39;73.91;99977.59;5039609;28;1727;-90
2022/04/25 10:23:55;;;;;;;;;;;;;;;12.55;73.66;99980.03;5039594;28;1383;-91
2022/04/25 10:26:25;;;;;;;;;;;;;;;12.53;72.09;99985.81;5042665;28;1426;-91
2022/04/25 10:28:54;;;;;;;;;;;;;;;12.72;73.65;99985.72;5039230;28;1945;-91
2022/04/25 10:31:30;;;;;;;;;;;;;;;12.67;70.54;99992.13;5032670;28;1378;-90
2022/04/25 10:33:59;;;;;;;;;;;;;;;12.51;73.34;99990.81;5036155;28;1396;-91
2022/04/25 10:36:36;;;;;;;;;;;;;;;12.78;73.33;99996.28;5031759;28;1334;-91
2022/04/25 10:39:20;;;;;;;;;;;;;;;12.95;72.97;99998.38;5055558;28;1307;-90
2022/04/25 10:44:45;;;;;;;;;;;;;;;13.51;72.51;99997.13;5047063;28;1384;-91
2022/04/25 10:47:11;;;;;;;;;;;;;;;13.69;71.32;99998.88;5045793;28;1231;-90
2022/04/25 10:49:42;;;;;;;;;;;;;;;13.50;71.91;99995.50;5038504;28;1894;-90
2022/04/25 10:52:26;;;;;;;;;;;;;;;13.33;71.17;99995.38;5038965;28;1263;-90
2022/04/25 10:54:51;;;;;;;;;;;;;;;13.11;70.89;100002.41;5053570;28;1446;-90
2022/04/25 10:57:17;;;;;;;;;;;;;;;12.87;71.90;100001.88;5056281;28;1224;-90
2022/04/25 10:59:43;;;;;;;;;;;;;;;12.70;72.08;100007.16;5055749;28;957;-90
2022/04/25 11:02:27;;;;;;;;;;;;;;;12.55;72.64;100005.56;5036885;28;1277;-90
2022/04/25 11:05:11;;;;;;;;;;;;;;;12.71;72.76;100006.06;5034814;28;1489;-90
2022/04/25 11:07:37;;;;;;;;;;;;;;;12.77;73.05;100010.31;5052182;28;1972;-90
2022/04/25 11:10:03;;;;;;;;;;;;;;;12.98;73.19;100008.78;5053192;28;1676;-91
2022/04/25 11:12:47;;;;;;;;;;;;;;;13.05;72.28;100014.66;5053632;28;1168;-89
2022/04/25 11:15:12;;;;;;;;;;;;;;;13.12;72.60;100015.03;5052951;28;1231;-90
2022/04/25 11:17:37;;;;;;;;;;;;;;;13.15;71.90;100013.66;5034672;28;1329;-91
2022/04/25 11:20:05;;;;;;;;;;;;;;;13.12;71.06;100017.78;5016414;28;1672;-90
2022/04/25 11:22:31;;;;;;;;;;;;;;;13.21;70.82;100020.66;5020036;28;1403;-90
2022/04/25 11:24:57;;;;;;;;;;;;;;;13.31;70.76;100017.66;5050554;28;1342;-90
2022/04/25 11:27:22;;;;;;;;;;;;;;;13.33;70.83;100020.94;5035297;28;1236;-91
2022/04/25 11:30:11;;;;;;;;;;;;;;;13.37;70.45;100024.66;5025515;28;1951;-90
2022/04/25 11:32:37;;;;;;;;;;;;;;;13.37;69.94;100021.09;5033511;28;940;-90
2022/04/25 11:35:03;;;;;;;;;;;;;;;13.43;70.22;100030.88;5026754;28;1428;-90
2022/04/25 11:37:29;;;;;;;;;;;;;;;13.46;68.87;100031.06;5030483;28;1866;-91
2022/04/25 11:39:59;;;;;;;;;;;;;;;13.50;69.10;100032.06;5029391;28;1442;-91
2022/04/25 11:42:29;;;;;;;;;;;;;;;13.50;69.80;100034.81;5035225;28;1300;-90
2022/04/25 11:44:55;;;;;;;;;;;;;;;13.45;70.58;100043.16;5031239;28;1552;-90
2022/04/25 11:47:20;;;;;;;;;;;;;;;13.44;69.48;100043.50;5034697;28;1304;-90
2022/04/25 11:49:46;;;;;;;;;;;;;;;13.48;69.69;100042.56;5035274;28;1886;-90
2022/04/25 11:52:15;;;;;;;;;;;;;;;13.62;70.66;100042.50;5022897;28;1211;-91
2022/04/25 11:54:40;;;;;;;;;;;;;;;13.59;70.16;100040.38;5026556;28;1365;-90
2022/04/25 11:57:06;;;;;;;;;;;;;;;13.56;69.93;100041.81;5034240;28;1378;-90
2022/04/25 11:59:31;;;;;;;;;;;;;;;13.56;71.35;100050.06;5035315;28;1628;-91
2022/04/25 12:01:56;;;;;;;;;;;;;;;13.55;71.86;100048.44;5035483;28;1314;-91
2022/04/25 12:04:23;;;;;;;;;;;;;;;13.55;72.90;100053.94;5035096;28;1451;-91
2022/04/25 12:06:58;;;;;;;;;;;;;;;13.59;72.59;100052.19;5035387;28;1205;-92
2022/04/25 12:17:44;;;;;;;;;;;;;;;13.77;72.09;100058.66;5054519;28;1799;-91
2022/04/25 12:20:10;;;;;;;;;;;;;;;13.86;71.85;100048.53;5038553;28;1570;-91
2022/04/25 12:22:40;;;;;;;;;;;;;;;13.71;72.21;100059.06;5038634;28;1324;-91
2022/04/25 12:25:12;;;;;;;;;;;;;;;13.59;71.95;100059.63;5038069;28;1452;-91
2022/04/25 12:27:37;;;;;;;;;;;;;;;13.48;70.33;100058.25;5037238;28;1902;-91
2022/04/25 12:30:04;;;;;;;;;;;;;;;13.38;71.53;100063.97;5038693;28;1188;-91
2022/04/25 12:32:29;;;;;;;;;;;;;;;13.26;71.44;100067.28;5056518;28;1305;-91
2022/04/25 12:34:54;;;;;;;;;;;;;;;13.15;72.11;100066.66;5039268;28;1275;-92
2022/04/25 12:37:19;;;;;;;;;;;;;;;13.00;71.18;100072.47;5040090;28;1286;-92
2022/04/25 12:40:03;;;;;;;;;;;;;;;12.83;71.29;100069.53;5039627;28;1423;-92
2022/04/25 12:42:47;;;;;;;;;;;;;;;12.70;71.71;100068.41;5038778;28;1518;-93
2022/04/25 12:45:14;;;;;;;;;;;;;;;12.58;71.15;100072.78;5019020;28;1262;-93
2022/04/25 12:47:43;;;;;;;;;;;;;;;12.58;72.61;100067.28;5036766;28;1894;-92
2022/04/25 12:50:29;;;;;;;;;;;;;;;12.49;72.27;100070.75;5039323;28;1745;-93
2022/04/25 12:52:54;;;;;;;;;;;;;;;12.48;71.53;100071.03;5038643;28;1253;-93
2022/04/25 12:55:39;;;;;;;;;;;;;;;12.47;72.45;100066.66;5039063;28;1004;-93
2022/04/25 12:58:04;;;;;;;;;;;;;;;12.36;71.75;100071.53;5038956;28;1597;-92
2022/04/25 13:00:38;;;;;;;;;;;;;;;12.29;72.69;100073.84;5038458;28;1162;-92
2022/04/25 13:03:03;;;;;;;;;;;;;;;12.33;72.65;100077.63;5038530;28;1227;-92
2022/04/25 13:05:31;;;;;;;;;;;;;;;12.44;72.48;100079.06;5038409;28;976;-92
2022/04/25 13:07:56;;;;;;;;;;;;;;;12.40;71.81;100074.50;5038239;28;1898;-93
2022/04/25 13:10:21;;;;;;;;;;;;;;;12.50;72.01;100075.09;5038179;28;695;-93
2022/04/25 13:12:48;;;;;;;;;;;;;;;12.13;71.19;100075.25;5029549;28;1624;-92
2022/04/25 13:15:18;;;;;;;;;;;;;;;11.89;71.00;100078.13;5026003;28;1624;-92
2022/04/25 13:17:44;;;;;;;;;;;;;;;12.17;72.40;100079.00;5037905;28;1220;-92
2022/04/25 13:20:10;;;;;;;;;;;;;;;12.12;70.18;100073.63;5055872;28;1470;-93
2022/04/25 13:22:35;;;;;;;;;;;;;;;12.29;71.08;100068.38;5038170;28;1200;-93
2022/04/25 13:25:01;;;;;;;;;;;;;;;12.44;71.38;100067.25;5071625;28;1171;-89
2022/04/25 13:27:26;;;;;;;;;;;;;;;12.39;72.26;100068.19;5038413;28;1449;-89
2022/04/25 13:29:51;;;;;;;;;;;;;;;12.56;71.75;100075.00;5038157;28;1881;-89
2022/04/25 13:32:16;;;;;;;;;;;;;;;12.49;70.87;100081.72;5071612;28;1222;-92
2022/04/25 13:34:42;;;;;;;;;;;;;;;12.61;71.08;100067.47;5037785;28;1205;-92
2022/04/25 13:37:07;;;;;;;;;;;;;;;12.56;69.94;100073.06;5043662;28;1772;-93
2022/04/25 13:39:32;;;;;;;;;;;;;;;12.61;71.24;100074.91;5038022;28;1315;-92
2022/04/25 13:42:01;;;;;;;;;;;;;;;12.94;71.52;100073.66;5038435;28;1184;-93
2022/04/25 13:44:26;;;;;;;;;;;;;;;13.24;71.02;100073.06;5038000;28;1200;-93
2022/04/25 13:46:51;;;;;;;;;;;;;;;13.13;69.14;100076.31;5037509;28;1268;-92
2022/04/25 13:49:16;;;;;;;;;;;;;;;13.13;69.65;100074.41;5038088;28;1879;-93
2022/04/25 13:51:41;;;;;;;;;;;;;;;13.25;69.72;100073.88;5037963;28;1028;-92
2022/04/25 13:54:07;;;;;;;;;;;;;;;13.16;69.47;100068.31;5037049;28;1128;-92
2022/04/25 13:56:32;;;;;;;;;;;;;;;13.14;69.70;100076.03;5037400;28;1355;-93
2022/04/25 13:58:57;;;;;;;;;;;;;;;13.51;69.78;100076.88;5037970;28;1722;-94
2022/04/25 14:01:22;;;;;;;;;;;;;;;13.71;68.20;100065.38;5037325;28;1439;-92
2022/04/25 14:03:49;;;;;;;;;;;;;;;13.81;67.21;100067.06;5038100;28;945;-92
2022/04/25 14:06:14;;;;;;;;;;;;;;;13.79;67.72;100061.88;5037398;28;1219;-92
2022/04/25 14:08:39;;;;;;;;;;;;;;;13.80;67.09;100069.00;5026912;28;1963;-93
2022/04/25 14:11:05;;;;;;;;;;;;;;;13.71;67.00;100068.13;5035607;28;1206;-93
2022/04/25 14:13:30;;;;;;;;;;;;;;;13.42;65.33;100057.56;5037319;28;1275;-93
2022/04/25 14:15:56;;;;;;;;;;;;;;;13.33;69.34;100059.41;5037456;28;1223;-93
2022/04/25 14:18:21;;;;;;;;;;;;;;;13.40;68.31;100058.97;5037531;28;1387;-93
2022/04/25 14:20:46;;;;;;;;;;;;;;;13.33;67.42;100059.41;5037994;28;1219;-92
2022/04/25 14:23:12;;;;;;;;;;;;;;;13.70;65.87;100057.44;5037363;28;1828;-92
2022/04/25 14:25:38;;;;;;;;;;;;;;;13.61;66.78;100052.69;5037829;28;1068;-93
2022/04/25 14:28:04;;;;;;;;;;;;;;;13.73;66.98;100065.06;5037465;28;1960;-94
2022/04/25 14:30:30;;;;;;;;;;;;;;;13.83;65.37;100062.91;5038108;28;1260;-93
2022/04/25 14:32:56;;;;;;;;;;;;;;;13.86;66.83;100062.28;5038586;28;1219;-93
2022/04/25 14:35:22;;;;;;;;;;;;;;;13.88;66.36;100068.25;5053658;28;1392;-93
2022/04/25 14:37:50;;;;;;;;;;;;;;;13.50;65.72;100072.50;5056532;28;1236;-92
2022/04/25 14:40:15;;;;;;;;;;;;;;;13.43;66.50;100080.38;5056184;28;1231;-93
2022/04/25 14:42:41;;;;;;;;;;;;;;;13.25;66.90;100076.63;5056405;28;1230;-91
2022/04/25 14:45:06;;;;;;;;;;;;;;;13.25;67.44;100077.44;5056128;28;1318;-91
2022/04/25 14:47:31;;;;;;;;;;;;;;;13.03;68.02;100079.25;5041756;28;1372;-90